createdAt,value
2023-04-16T00:01:07.959Z,9.80
2023-04-16T00:06:13.018Z,9.60
2023-04-16T00:11:18.130Z,9.50
2023-04-16T00:16:21.731Z,9.70
2023-04-16T00:21:26.680Z,9.50
2023-04-16T00:26:32.169Z,9.50
2023-04-16T00:31:36.047Z,9.60
2023-04-16T00:36:40.629Z,9.40
2023-04-16T00:41:46.579Z,9.30
2023-04-16T00:46:51.076Z,9.30
2023-04-16T00:51:56.099Z,9.20
2023-04-16T00:57:01.794Z,9.90
2023-04-16T01:02:05.413Z,9.30
2023-04-16T01:07:09.337Z,9.10
2023-04-16T01:12:14.517Z,9.20
2023-04-16T01:17:18.017Z,9.10
2023-04-16T01:22:22.978Z,9.10
2023-04-16T01:27:27.321Z,9.10
2023-04-16T01:32:33.569Z,9.00
2023-04-16T01:37:42.298Z,9.10
2023-04-16T01:42:47.798Z,9.10
2023-04-16T01:47:52.229Z,9.10
2023-04-16T01:52:57.396Z,9.10
2023-04-16T01:58:01.668Z,9.00
2023-04-16T02:03:10.272Z,9.00
2023-04-16T02:08:15.934Z,9.00
2023-04-16T02:13:19.825Z,8.90
2023-04-16T02:18:24.446Z,8.80
2023-04-16T02:23:31.218Z,8.70
2023-04-16T02:28:36.021Z,8.70
2023-04-16T02:33:42.554Z,8.80
2023-04-16T02:38:47.796Z,8.80
2023-04-16T02:43:51.706Z,8.90
2023-04-16T02:48:55.135Z,8.90
2023-04-16T02:54:00.351Z,9.00
2023-04-16T02:59:04.254Z,9.00
2023-04-16T03:04:08.528Z,9.10
2023-04-16T03:09:13.477Z,9.20
2023-04-16T03:14:17.210Z,9.20
2023-04-16T03:19:22.027Z,9.20
2023-04-16T03:24:28.268Z,9.10
2023-04-16T03:29:32.223Z,9.00
2023-04-16T03:34:36.985Z,9.10
2023-04-16T03:39:42.150Z,8.90
2023-04-16T03:44:48.330Z,8.80
2023-04-16T03:49:54.463Z,8.80
2023-04-16T03:55:00.416Z,8.80
2023-04-16T04:00:11.804Z,8.80
2023-04-16T04:05:18.693Z,8.80
2023-04-16T04:10:25.512Z,8.80
2023-04-16T04:15:57.290Z,8.70
2023-04-16T04:21:01.686Z,8.80
2023-04-16T04:26:09.049Z,8.80
2023-04-16T04:31:12.901Z,8.80
2023-04-16T04:36:17.325Z,8.70
2023-04-16T04:41:24.297Z,8.80
2023-04-16T04:46:27.582Z,8.90
2023-04-16T04:51:31.266Z,8.80
2023-04-16T04:56:36.676Z,8.60
2023-04-16T05:01:41.980Z,8.70
2023-04-16T05:06:46.330Z,8.80
2023-04-16T05:11:51.435Z,8.70
2023-04-16T05:16:55.358Z,8.80
2023-04-16T05:21:59.974Z,8.60
2023-04-16T05:27:04.936Z,8.70
2023-04-16T05:32:08.482Z,8.80
2023-04-16T05:37:12.168Z,8.90
2023-04-16T05:42:16.907Z,8.90
2023-04-16T05:47:20.668Z,9.00
2023-04-16T05:52:25.210Z,9.10
2023-04-16T05:57:31.500Z,9.20
2023-04-16T06:02:35.022Z,9.40
2023-04-16T06:07:41.894Z,9.30
2023-04-16T06:12:46.720Z,9.30
2023-04-16T06:17:51.450Z,9.50
2023-04-16T06:22:57.347Z,9.50
2023-04-16T06:28:02.461Z,9.40
2023-04-16T06:33:07.166Z,9.40
2023-04-16T06:38:10.578Z,9.30
2023-04-16T06:43:18.024Z,9.50
2023-04-16T06:48:22.784Z,9.60
2023-04-16T06:53:33.516Z,9.40
2023-04-16T06:58:38.543Z,9.60
2023-04-16T07:03:42.459Z,9.80
2023-04-16T07:08:46.376Z,10.10
2023-04-16T07:13:53.272Z,10.10
2023-04-16T07:18:58.619Z,10.10
2023-04-16T07:24:04.160Z,10.30
2023-04-16T07:29:11.895Z,10.50
2023-04-16T07:34:15.499Z,10.50
2023-04-16T07:39:19.760Z,10.80
2023-04-16T07:44:25.292Z,10.80
2023-04-16T07:49:29.058Z,10.90
2023-04-16T07:54:32.956Z,10.90
2023-04-16T07:59:43.306Z,10.70
2023-04-16T08:04:52.812Z,10.40
2023-04-16T08:09:56.842Z,10.70
2023-04-16T08:15:04.137Z,10.80
2023-04-16T08:20:11.243Z,11.70
2023-04-16T08:25:17.436Z,12.40
2023-04-16T08:30:23.009Z,12.50
2023-04-16T08:35:26.941Z,12.40
2023-04-16T08:40:30.781Z,12.80
2023-04-16T08:45:35.595Z,12.50
2023-04-16T08:50:39.846Z,12.20
2023-04-16T08:55:47.403Z,12.30
2023-04-16T09:00:53.406Z,12.30
2023-04-16T09:05:57.409Z,12.30
2023-04-16T09:11:00.655Z,13.10
2023-04-16T09:16:06.536Z,13.30
2023-04-16T09:21:26.827Z,12.70
2023-04-16T09:26:39.355Z,12.80
2023-04-16T09:31:47.909Z,12.80
2023-04-16T09:37:19.797Z,13.20
2023-04-16T09:58:26.513Z,12.00
2023-04-16T10:03:32.749Z,11.80
2023-04-16T10:08:36.478Z,12.30
2023-04-16T10:13:43.927Z,13.80
2023-04-16T10:18:50.135Z,14.00
2023-04-16T10:23:55.105Z,14.80
2023-04-16T10:29:00.436Z,15.40
2023-04-16T10:34:05.307Z,15.10
2023-04-16T10:39:16.867Z,14.80
2023-04-16T10:44:24.717Z,14.40
2023-04-16T10:49:30.484Z,14.60
2023-04-16T10:54:36.089Z,14.60
2023-04-16T10:59:45.433Z,14.90
2023-04-16T11:04:50.914Z,15.10
2023-04-16T11:10:00.713Z,15.60
2023-04-16T11:15:12.336Z,16.10
2023-04-16T11:20:20.542Z,15.80
2023-04-16T11:25:27.752Z,15.50
2023-04-16T11:30:38.358Z,15.00
2023-04-16T11:35:44.504Z,14.70
2023-04-16T11:40:52.002Z,14.20
2023-04-16T11:46:24.053Z,14.00
2023-04-16T11:51:32.479Z,13.90
2023-04-16T11:56:37.612Z,14.00
2023-04-16T12:01:51.704Z,14.10
2023-04-16T12:07:10.468Z,14.00
2023-04-16T12:12:36.206Z,13.80
2023-04-16T12:17:46.467Z,13.70
2023-04-16T12:22:52.173Z,13.90
2023-04-16T12:28:00.111Z,13.90
2023-04-16T12:33:21.421Z,14.10
2023-04-16T12:38:28.166Z,14.40
2023-04-16T12:43:34.046Z,14.40
2023-04-16T12:48:40.981Z,14.40
2023-04-16T12:53:45.673Z,14.60
2023-04-16T12:58:55.497Z,15.20
2023-04-16T13:04:05.050Z,15.20
2023-04-16T13:09:09.038Z,16.10
2023-04-16T13:14:13.371Z,16.20
2023-04-16T13:19:24.476Z,14.80
2023-04-16T13:24:29.150Z,14.10
2023-04-16T13:29:36.752Z,13.90
2023-04-16T13:34:45.673Z,13.90
2023-04-16T13:39:49.654Z,13.30
2023-04-16T13:44:55.266Z,13.10
2023-04-16T13:50:15.977Z,13.50
2023-04-16T13:55:22.760Z,13.70
2023-04-16T14:00:29.152Z,13.30
2023-04-16T14:05:35.922Z,13.20
2023-04-16T14:10:40.369Z,13.40
2023-04-16T14:15:44.559Z,13.50
2023-04-16T14:20:52.997Z,13.20
2023-04-16T14:25:56.904Z,13.30
2023-04-16T14:31:01.344Z,13.40
2023-04-16T14:36:07.947Z,13.40
2023-04-16T14:41:13.522Z,13.70
2023-04-16T14:46:18.399Z,13.70
2023-04-16T14:51:23.627Z,13.30
2023-04-16T14:56:28.974Z,12.80
2023-04-16T15:01:32.870Z,12.60
2023-04-16T15:06:43.655Z,12.60
2023-04-16T15:11:47.835Z,12.60
2023-04-16T15:16:51.856Z,12.70
2023-04-16T15:21:56.916Z,12.90
2023-04-16T15:27:12.654Z,12.90
2023-04-16T15:32:17.199Z,13.00
2023-04-16T15:37:22.370Z,12.90
2023-04-16T15:42:29.970Z,12.80
2023-04-16T15:47:35.362Z,12.90
2023-04-16T15:52:44.074Z,13.30
2023-04-16T15:58:13.176Z,13.80
2023-04-16T16:03:19.159Z,14.30
2023-04-16T16:08:24.400Z,14.10
2023-04-16T16:13:28.868Z,14.10
2023-04-16T16:18:32.412Z,13.80
2023-04-16T16:23:38.119Z,13.70
2023-04-16T16:28:45.069Z,13.50
2023-04-16T16:33:49.946Z,13.60
2023-04-16T16:38:55.643Z,13.40
2023-04-16T16:44:00.284Z,13.70
2023-04-16T16:49:05.204Z,13.50
2023-04-16T16:54:10.556Z,13.50
2023-04-16T16:59:14.492Z,13.40
2023-04-16T17:04:20.298Z,13.50
2023-04-16T17:09:28.197Z,13.70
2023-04-16T17:14:31.762Z,13.30
2023-04-16T17:19:35.013Z,13.10
2023-04-16T17:24:41.396Z,13.30
2023-04-16T17:29:45.297Z,14.20
2023-04-16T17:34:48.848Z,14.40
2023-04-16T17:39:53.695Z,14.70
2023-04-16T17:44:57.706Z,14.40
2023-04-16T17:50:02.039Z,13.20
2023-04-16T17:55:07.829Z,12.50
2023-04-16T18:00:16.167Z,12.10
2023-04-16T18:05:20.765Z,11.90
2023-04-16T18:10:25.717Z,11.80
2023-04-16T18:15:30.277Z,11.70
2023-04-16T18:20:36.004Z,11.70
2023-04-16T18:25:41.111Z,11.60
2023-04-16T18:30:44.886Z,11.40
2023-04-16T18:35:48.455Z,11.20
2023-04-16T18:40:53.239Z,10.90
2023-04-16T18:45:56.638Z,10.90
2023-04-16T18:51:00.588Z,10.90
2023-04-16T18:56:06.038Z,10.80
2023-04-16T19:01:13.172Z,10.70
2023-04-16T19:06:17.116Z,10.80
2023-04-16T19:11:22.253Z,10.80
2023-04-16T19:16:27.385Z,10.90
2023-04-16T19:21:31.791Z,11.00
2023-04-16T19:26:37.021Z,11.10
2023-04-16T19:31:43.214Z,11.10
2023-04-16T19:36:46.812Z,11.00
2023-04-16T19:41:52.073Z,11.20
2023-04-16T19:46:55.907Z,11.20
2023-04-16T19:51:59.591Z,11.20
2023-04-16T19:57:05.131Z,11.10
2023-04-16T20:02:09.686Z,11.20
2023-04-16T20:07:13.491Z,10.90
2023-04-16T20:12:18.660Z,10.80
2023-04-16T20:17:21.807Z,10.90
2023-04-16T20:22:25.550Z,10.80
2023-04-16T20:27:31.279Z,10.80
2023-04-16T20:32:36.107Z,10.80
2023-04-16T20:37:41.917Z,10.80
2023-04-16T20:42:47.884Z,10.80
2023-04-16T20:47:51.763Z,10.90
2023-04-16T20:52:55.279Z,10.90
2023-04-16T20:58:01.440Z,10.90
2023-04-16T21:03:04.873Z,10.90
2023-04-16T21:08:09.900Z,10.70
2023-04-16T21:13:15.431Z,10.60
2023-04-16T21:18:19.612Z,10.60
2023-04-16T21:23:23.123Z,10.50
2023-04-16T21:28:28.103Z,10.50
2023-04-16T21:33:31.864Z,10.60
2023-04-16T21:38:35.013Z,10.50
2023-04-16T21:43:40.578Z,10.40
2023-04-16T21:48:44.060Z,10.30
2023-04-16T21:53:47.341Z,10.10
2023-04-16T21:58:52.498Z,10.10
2023-04-16T22:03:56.603Z,10.00
2023-04-16T22:09:01.731Z,10.00
2023-04-16T22:14:08.577Z,10.10
2023-04-16T22:19:13.435Z,9.90
2023-04-16T22:24:17.263Z,10.00
2023-04-16T22:29:22.375Z,9.90
2023-04-16T22:34:26.072Z,9.70
2023-04-16T22:39:30.049Z,9.90
2023-04-16T22:44:37.397Z,9.90
2023-04-16T22:49:41.266Z,9.90
2023-04-16T22:54:45.516Z,10.00
2023-04-16T22:59:50.752Z,9.90
2023-04-16T23:04:54.769Z,9.90
2023-04-16T23:09:58.533Z,9.90
2023-04-16T23:15:06.741Z,9.90
2023-04-16T23:20:39.217Z,9.90
2023-04-16T23:25:42.946Z,9.90
2023-04-16T23:30:48.052Z,9.80
2023-04-16T23:35:51.618Z,9.80
2023-04-16T23:40:54.964Z,9.60
2023-04-16T23:45:59.641Z,9.70
2023-04-16T23:51:03.384Z,9.60
2023-04-16T23:56:07.603Z,9.60
